createdAt,value
2022-07-25T00:00:42.849Z,9.95
2022-07-25T00:02:44.706Z,8.18
2022-07-25T00:04:46.390Z,9.20
2022-07-25T00:06:48.065Z,8.15
2022-07-25T00:08:49.658Z,8.32
2022-07-25T00:10:51.289Z,8.68
2022-07-25T00:12:52.947Z,9.00
2022-07-25T00:14:54.586Z,9.48
2022-07-25T00:16:56.254Z,8.80
2022-07-25T00:18:57.938Z,8.18
2022-07-25T00:20:59.681Z,8.50
2022-07-25T00:23:01.366Z,9.10
2022-07-25T00:25:03.042Z,9.10
2022-07-25T00:27:04.913Z,9.35
2022-07-25T00:29:06.520Z,9.10
2022-07-25T00:31:08.341Z,9.75
2022-07-25T00:33:10.272Z,9.25
2022-07-25T00:35:11.910Z,9.15
2022-07-25T00:37:13.592Z,9.82
2022-07-25T00:39:15.283Z,8.82
2022-07-25T00:41:17.092Z,9.15
2022-07-25T00:43:18.718Z,9.55
2022-07-25T00:45:20.405Z,9.68
2022-07-25T00:47:22.344Z,9.57
2022-07-25T00:49:24.309Z,8.57
2022-07-25T00:51:26.162Z,9.18
2022-07-25T00:53:27.841Z,9.60
2022-07-25T00:55:29.603Z,9.13
2022-07-25T00:57:31.322Z,9.18
2022-07-25T00:59:33.071Z,9.25
2022-07-25T01:01:35.018Z,9.30
2022-07-25T01:03:36.727Z,9.07
2022-07-25T01:05:38.392Z,10.30
2022-07-25T01:07:40.451Z,9.30
2022-07-25T01:09:42.518Z,9.63
2022-07-25T01:11:44.259Z,9.25
2022-07-25T01:13:45.956Z,10.38
2022-07-25T01:15:48.173Z,10.25
2022-07-25T01:17:50.404Z,10.13
2022-07-25T01:19:53.331Z,9.32
2022-07-25T01:21:56.348Z,9.75
2022-07-25T01:23:58.214Z,9.82
2022-07-25T01:25:59.869Z,9.55
2022-07-25T01:28:01.978Z,9.52
2022-07-25T01:30:06.396Z,9.98
2022-07-25T01:32:08.223Z,9.38
2022-07-25T01:34:10.093Z,8.80
2022-07-25T01:36:12.313Z,9.40
2022-07-25T01:38:14.859Z,9.52
2022-07-25T01:40:16.631Z,9.90
2022-07-25T01:42:18.329Z,8.90
2022-07-25T01:44:20.026Z,9.43
2022-07-25T01:46:21.748Z,9.15
2022-07-25T01:48:23.458Z,8.80
2022-07-25T01:50:25.664Z,9.05
2022-07-25T01:52:27.403Z,8.68
2022-07-25T01:54:29.286Z,8.27
2022-07-25T01:56:31.861Z,8.85
2022-07-25T01:58:33.654Z,8.30
2022-07-25T02:00:35.546Z,9.07
2022-07-25T02:02:37.414Z,8.93
2022-07-25T02:04:39.158Z,8.73
2022-07-25T02:06:41.587Z,9.10
2022-07-25T02:08:43.245Z,9.10
2022-07-25T02:10:45.025Z,9.23
2022-07-25T02:12:46.710Z,9.38
2022-07-25T02:14:48.326Z,9.00
2022-07-25T02:16:50.513Z,9.35
2022-07-25T02:18:52.464Z,9.60
2022-07-25T02:20:54.151Z,9.43
2022-07-25T02:22:55.729Z,9.82
2022-07-25T02:24:57.416Z,9.10
2022-07-25T02:26:59.073Z,9.55
2022-07-25T02:29:01.409Z,9.50
2022-07-25T02:31:03.254Z,9.82
2022-07-25T02:33:04.993Z,9.90
2022-07-25T02:35:13.295Z,9.20
2022-07-25T02:37:15.185Z,9.20
2022-07-25T02:39:16.927Z,8.80
2022-07-25T02:41:18.543Z,9.02
2022-07-25T02:43:20.987Z,9.15
2022-07-25T02:45:22.873Z,9.10
2022-07-25T02:47:24.589Z,9.15
2022-07-25T02:49:26.271Z,9.20
2022-07-25T02:51:27.929Z,9.07
2022-07-25T02:53:54.923Z,9.05
2022-07-25T02:55:51.251Z,8.70
2022-07-25T02:57:52.959Z,8.73
2022-07-25T02:59:54.638Z,8.68
2022-07-25T03:01:56.342Z,9.00
2022-07-25T03:03:58.074Z,8.10
2022-07-25T03:05:59.731Z,9.18
2022-07-25T03:08:01.469Z,8.50
2022-07-25T03:10:08.639Z,8.35
2022-07-25T03:12:13.162Z,8.85
2022-07-25T03:14:14.844Z,8.40
2022-07-25T03:16:16.516Z,8.98
2022-07-25T03:18:18.244Z,8.93
2022-07-25T03:20:19.873Z,9.48
2022-07-25T03:22:22.309Z,8.38
2022-07-25T03:24:23.922Z,8.52
2022-07-25T03:26:25.565Z,8.75
2022-07-25T03:28:27.233Z,7.85
2022-07-25T03:30:28.949Z,9.25
2022-07-25T03:32:30.582Z,7.75
2022-07-25T03:34:32.349Z,8.25
2022-07-25T03:36:34.000Z,8.38
2022-07-25T03:38:36.046Z,8.43
2022-07-25T03:40:37.798Z,8.23
2022-07-25T03:42:39.382Z,7.75
2022-07-25T03:44:41.157Z,7.95
2022-07-25T03:46:42.812Z,8.07
2022-07-25T03:48:44.511Z,8.38
2022-07-25T03:50:46.290Z,8.38
2022-07-25T03:52:48.871Z,8.63
2022-07-25T03:54:50.719Z,8.10
2022-07-25T03:56:52.456Z,8.07
2022-07-25T03:58:54.108Z,7.88
2022-07-25T04:00:55.731Z,7.90
2022-07-25T04:02:57.382Z,8.65
2022-07-25T04:04:58.996Z,7.97
2022-07-25T04:07:00.604Z,7.93
2022-07-25T04:09:02.453Z,7.95
2022-07-25T04:11:04.186Z,7.75
2022-07-25T04:13:05.842Z,8.45
2022-07-25T04:15:08.006Z,7.30
2022-07-25T04:17:09.690Z,8.32
2022-07-25T04:19:11.440Z,7.72
2022-07-25T04:21:13.211Z,8.10
2022-07-25T04:23:14.864Z,7.13
2022-07-25T04:25:18.003Z,7.68
2022-07-25T04:27:19.677Z,7.68
2022-07-25T04:29:21.333Z,7.50
2022-07-25T04:31:23.111Z,7.28
2022-07-25T04:33:25.053Z,7.65
2022-07-25T04:35:26.742Z,7.30
2022-07-25T04:37:28.847Z,7.13
2022-07-25T04:39:30.514Z,7.40
2022-07-25T04:41:32.236Z,7.60
2022-07-25T04:43:33.845Z,7.72
2022-07-25T04:45:35.741Z,7.22
2022-07-25T04:47:37.471Z,7.60
2022-07-25T04:49:39.096Z,7.32
2022-07-25T04:51:40.762Z,7.60
2022-07-25T04:53:42.530Z,7.18
2022-07-25T04:55:44.159Z,7.20
2022-07-25T04:57:47.152Z,6.55
2022-07-25T04:59:48.792Z,7.45
2022-07-25T05:01:50.494Z,7.15
2022-07-25T05:03:52.278Z,7.13
2022-07-25T05:05:53.928Z,8.20
2022-07-25T05:07:59.766Z,6.85
2022-07-25T05:10:01.503Z,7.13
2022-07-25T05:12:03.238Z,6.95
2022-07-25T05:14:05.639Z,7.18
2022-07-25T05:16:07.779Z,6.72
2022-07-25T05:18:09.476Z,7.82
2022-07-25T05:20:12.145Z,6.93
2022-07-25T05:22:13.957Z,7.05
2022-07-25T05:24:15.651Z,6.70
2022-07-25T05:26:17.446Z,7.38
2022-07-25T05:28:19.108Z,7.00
2022-07-25T05:30:20.767Z,6.53
2022-07-25T05:32:22.606Z,6.40
2022-07-25T05:34:24.462Z,6.80
2022-07-25T05:36:26.103Z,7.07
2022-07-25T05:38:27.822Z,6.95
2022-07-25T05:40:29.471Z,7.00
2022-07-25T05:42:31.312Z,7.45
2022-07-25T05:44:33.389Z,6.38
2022-07-25T05:46:35.567Z,7.43
2022-07-25T05:48:37.530Z,7.65
2022-07-25T05:50:39.475Z,7.15
2022-07-25T05:52:41.103Z,7.30
2022-07-25T05:54:43.005Z,7.10
2022-07-25T05:56:44.747Z,6.75
2022-07-25T05:58:46.442Z,6.95
2022-07-25T06:00:48.059Z,7.30
2022-07-25T06:02:49.877Z,7.75
2022-07-25T06:04:51.633Z,7.10
2022-07-25T06:06:53.473Z,6.90
2022-07-25T06:08:55.077Z,7.70
2022-07-25T06:10:59.884Z,7.45
2022-07-25T06:13:02.386Z,7.90
2022-07-25T06:15:05.800Z,7.68
2022-07-25T06:19:09.218Z,7.32
2022-07-25T06:21:10.920Z,7.10
2022-07-25T06:23:12.590Z,7.10
2022-07-25T06:25:15.091Z,7.40
2022-07-25T06:27:20.524Z,7.10
2022-07-25T06:29:23.345Z,6.85
2022-07-25T06:31:25.011Z,7.55
2022-07-25T06:33:26.752Z,6.82
2022-07-25T06:35:28.513Z,6.40
2022-07-25T06:37:30.183Z,6.65
2022-07-25T06:39:31.859Z,6.53
2022-07-25T06:41:33.527Z,6.78
2022-07-25T06:43:35.118Z,6.72
2022-07-25T06:45:36.762Z,6.93
2022-07-25T06:47:39.493Z,7.20
2022-07-25T06:49:43.926Z,7.28
2022-07-25T06:51:45.549Z,6.80
2022-07-25T06:53:47.195Z,6.65
2022-07-25T06:55:48.952Z,6.90
2022-07-25T06:57:50.696Z,7.53
2022-07-25T06:59:52.480Z,6.47
2022-07-25T07:01:54.366Z,7.53
2022-07-25T07:03:56.126Z,7.63
2022-07-25T07:05:57.873Z,8.50
2022-07-25T07:07:59.922Z,7.88
2022-07-25T07:10:01.553Z,7.30
2022-07-25T07:12:03.274Z,7.85
2022-07-25T07:14:05.524Z,6.60
2022-07-25T07:16:07.760Z,7.90
2022-07-25T07:18:09.464Z,7.55
2022-07-25T07:20:11.931Z,7.63
2022-07-25T07:22:13.668Z,7.43
2022-07-25T07:24:24.288Z,7.45
2022-07-25T07:26:26.419Z,7.55
2022-07-25T07:28:28.069Z,6.70
2022-07-25T07:30:58.750Z,6.72
2022-07-25T07:32:51.907Z,7.45
2022-07-25T07:34:53.591Z,7.68
2022-07-25T07:36:55.274Z,7.25
2022-07-25T07:38:56.953Z,6.97
2022-07-25T07:40:58.956Z,8.05
2022-07-25T07:43:03.613Z,7.18
2022-07-25T07:45:11.547Z,6.95
2022-07-25T07:47:14.458Z,7.63
2022-07-25T07:49:16.597Z,7.78
2022-07-25T07:51:18.263Z,6.85
2022-07-25T07:53:19.965Z,6.97
2022-07-25T07:55:40.416Z,7.75
2022-07-25T07:57:42.063Z,7.18
2022-07-25T07:59:43.691Z,7.05
2022-07-25T08:01:45.381Z,6.78
2022-07-25T08:03:47.089Z,8.60
2022-07-25T08:05:49.973Z,7.43
2022-07-25T08:07:52.661Z,7.72
2022-07-25T08:09:54.346Z,7.57
2022-07-25T08:11:56.034Z,7.55
2022-07-25T08:13:57.774Z,7.55
2022-07-25T08:16:01.095Z,6.97
2022-07-25T08:18:04.770Z,7.00
2022-07-25T08:20:37.420Z,7.47
2022-07-25T08:22:45.554Z,7.70
2022-07-25T08:24:47.214Z,7.15
2022-07-25T08:26:48.917Z,7.32
2022-07-25T08:29:04.891Z,7.50
2022-07-25T08:31:12.234Z,7.03
2022-07-25T08:33:16.217Z,7.03
2022-07-25T08:35:22.068Z,6.72
2022-07-25T08:37:24.134Z,7.30
2022-07-25T08:39:25.859Z,6.78
2022-07-25T08:41:27.867Z,6.90
2022-07-25T08:43:32.898Z,7.63
2022-07-25T08:45:34.600Z,7.25
2022-07-25T08:47:37.062Z,7.22
2022-07-25T08:49:38.736Z,6.90
2022-07-25T08:51:40.920Z,6.78
2022-07-25T08:53:42.742Z,7.03
2022-07-25T08:55:50.402Z,6.97
2022-07-25T08:57:53.943Z,7.55
2022-07-25T08:59:59.279Z,6.88
2022-07-25T09:02:03.896Z,7.00
2022-07-25T09:04:08.753Z,7.32
2022-07-25T09:06:21.809Z,8.30
2022-07-25T09:08:23.551Z,7.45
2022-07-25T09:10:27.799Z,6.57
2022-07-25T09:12:29.449Z,7.15
2022-07-25T09:14:31.541Z,10.25
2022-07-25T09:16:35.370Z,7.85
2022-07-25T09:18:40.222Z,6.90
2022-07-25T09:20:50.956Z,6.80
2022-07-25T09:22:52.898Z,7.10
2022-07-25T09:24:55.077Z,7.10
2022-07-25T09:27:01.296Z,6.75
2022-07-25T09:29:03.023Z,7.03
2022-07-25T09:31:04.791Z,7.88
2022-07-25T09:33:06.617Z,7.15
2022-07-25T09:35:09.290Z,7.43
2022-07-25T09:37:15.105Z,6.93
2022-07-25T09:39:16.744Z,6.65
2022-07-25T09:41:18.853Z,8.32
2022-07-25T09:43:20.475Z,7.00
2022-07-25T09:45:22.231Z,7.30
2022-07-25T09:47:24.168Z,6.55
2022-07-25T09:49:26.859Z,7.07
2022-07-25T09:51:29.260Z,6.72
2022-07-25T09:53:30.981Z,6.73
2022-07-25T09:55:32.970Z,6.72
2022-07-25T09:57:34.574Z,6.93
2022-07-25T09:59:37.070Z,7.30
2022-07-25T10:01:46.864Z,6.70
2022-07-25T10:03:54.443Z,6.65
2022-07-25T10:06:16.940Z,6.45
2022-07-25T10:08:19.107Z,6.57
2022-07-25T10:10:29.381Z,6.68
2022-07-25T10:12:31.079Z,6.72
2022-07-25T10:14:33.846Z,6.15
2022-07-25T10:16:46.649Z,6.63
2022-07-25T10:18:56.515Z,6.07
2022-07-25T10:21:28.666Z,6.72
2022-07-25T10:23:30.779Z,6.50
2022-07-25T10:25:32.610Z,6.55
2022-07-25T10:27:42.215Z,6.55
2022-07-25T10:29:50.952Z,6.40
2022-07-25T10:31:52.635Z,5.45
2022-07-25T10:33:57.262Z,6.07
2022-07-25T10:36:07.061Z,5.93
2022-07-25T10:38:09.107Z,6.75
2022-07-25T10:40:11.432Z,6.38
2022-07-25T10:42:15.155Z,6.67
2022-07-25T10:44:17.001Z,5.97
2022-07-25T10:46:20.795Z,6.15
2022-07-25T10:48:31.804Z,6.78
2022-07-25T10:50:54.499Z,6.60
2022-07-25T10:53:00.394Z,5.88
2022-07-25T10:55:02.044Z,6.00
2022-07-25T10:57:06.002Z,5.47
2022-07-25T10:59:08.154Z,6.18
2022-07-25T11:01:10.586Z,5.90
2022-07-25T11:03:17.903Z,5.25
2022-07-25T11:05:20.285Z,5.13
2022-07-25T11:07:21.954Z,6.00
2022-07-25T11:09:28.505Z,5.38
2022-07-25T11:11:35.233Z,5.10
2022-07-25T11:13:40.689Z,5.35
2022-07-25T11:15:42.576Z,5.47
2022-07-25T11:17:51.324Z,5.63
2022-07-25T11:19:57.355Z,5.32
2022-07-25T11:22:01.451Z,5.70
2022-07-25T11:24:03.203Z,5.85
2022-07-25T11:26:09.543Z,6.22
2022-07-25T11:28:11.736Z,5.82
2022-07-25T11:30:14.922Z,5.78
2022-07-25T11:34:19.916Z,5.90
2022-07-25T11:38:23.341Z,5.40
2022-07-25T11:40:25.974Z,5.15
2022-07-25T11:42:28.699Z,5.88
2022-07-25T11:44:36.294Z,6.15
2022-07-25T11:46:44.766Z,5.50
2022-07-25T11:48:46.538Z,5.88
2022-07-25T11:50:48.341Z,5.28
2022-07-25T11:53:05.471Z,5.40
2022-07-25T11:55:09.756Z,5.55
2022-07-25T11:57:20.584Z,5.85
2022-07-25T11:59:22.271Z,5.40
2022-07-25T12:01:24.885Z,5.70
2022-07-25T12:03:26.797Z,5.80
2022-07-25T12:05:32.618Z,6.10
2022-07-25T12:07:45.735Z,6.13
2022-07-25T12:09:57.078Z,5.68
2022-07-25T12:12:04.334Z,6.43
2022-07-25T12:14:06.815Z,6.15
2022-07-25T12:16:08.781Z,6.28
2022-07-25T12:18:12.489Z,6.07
2022-07-25T12:20:19.844Z,5.40
2022-07-25T12:22:21.633Z,6.07
2022-07-25T12:24:23.611Z,5.63
2022-07-25T12:26:25.337Z,5.70
2022-07-25T12:28:28.227Z,5.35
2022-07-25T12:30:31.032Z,5.35
2022-07-25T12:32:33.002Z,6.57
2022-07-25T12:34:34.776Z,6.20
2022-07-25T12:36:43.785Z,5.75
2022-07-25T12:38:45.565Z,6.22
2022-07-25T12:40:47.287Z,5.78
2022-07-25T12:42:49.820Z,6.30
2022-07-25T12:44:51.710Z,5.35
2022-07-25T12:46:53.428Z,6.85
2022-07-25T12:48:55.148Z,6.65
2022-07-25T12:50:56.854Z,5.85
2022-07-25T12:52:58.536Z,5.85
2022-07-25T12:55:00.214Z,6.03
2022-07-25T12:57:02.006Z,5.82
2022-07-25T12:59:04.012Z,5.60
2022-07-25T13:01:06.282Z,6.20
2022-07-25T13:03:08.076Z,5.80
2022-07-25T13:05:10.337Z,5.68
2022-07-25T13:07:13.264Z,5.82
2022-07-25T13:09:14.928Z,6.03
2022-07-25T13:11:16.821Z,6.05
2022-07-25T13:13:18.507Z,5.50
2022-07-25T13:15:22.339Z,6.38
2022-07-25T13:17:27.497Z,5.78
2022-07-25T13:19:29.550Z,5.97
2022-07-25T13:21:31.367Z,5.82
2022-07-25T13:23:33.152Z,5.70
2022-07-25T13:25:36.056Z,5.63
2022-07-25T13:27:38.226Z,6.25
2022-07-25T13:29:39.986Z,5.70
2022-07-25T13:31:42.985Z,5.93
2022-07-25T13:33:44.861Z,5.50
2022-07-25T13:35:46.595Z,6.05
2022-07-25T13:37:48.469Z,5.40
2022-07-25T13:39:50.158Z,5.07
2022-07-25T13:41:51.833Z,5.50
2022-07-25T13:43:53.962Z,5.40
2022-07-25T13:45:55.689Z,5.80
2022-07-25T13:48:26.765Z,5.53
2022-07-25T13:50:19.041Z,5.70
2022-07-25T13:52:20.790Z,5.47
2022-07-25T13:54:22.739Z,5.65
2022-07-25T13:56:24.574Z,5.72
2022-07-25T13:58:26.859Z,5.45
2022-07-25T14:00:28.537Z,5.80
2022-07-25T14:02:30.310Z,5.53
2022-07-25T14:04:32.036Z,5.45
2022-07-25T14:06:34.289Z,4.88
2022-07-25T14:08:36.518Z,5.17
2022-07-25T14:10:38.268Z,5.17
2022-07-25T14:12:39.979Z,5.25
2022-07-25T14:14:41.677Z,5.80
2022-07-25T14:16:43.611Z,5.45
2022-07-25T14:18:45.319Z,5.20
2022-07-25T14:20:46.984Z,5.18
2022-07-25T14:22:48.699Z,5.30
2022-07-25T14:24:50.374Z,5.32
2022-07-25T14:26:53.973Z,5.20
2022-07-25T14:28:55.941Z,5.00
2022-07-25T14:30:57.710Z,4.95
2022-07-25T14:32:59.404Z,4.53
2022-07-25T14:35:02.039Z,5.35
2022-07-25T14:37:05.763Z,4.85
2022-07-25T14:39:08.395Z,4.90
2022-07-25T14:41:13.082Z,5.22
2022-07-25T14:43:15.087Z,5.07
2022-07-25T14:45:18.815Z,4.88
2022-07-25T14:47:21.325Z,4.80
2022-07-25T14:49:25.776Z,4.57
2022-07-25T14:51:28.602Z,5.70
2022-07-25T14:53:30.324Z,5.60
2022-07-25T14:55:32.073Z,5.53
2022-07-25T14:57:33.759Z,4.90
2022-07-25T14:59:35.624Z,5.32
2022-07-25T15:01:38.573Z,5.30
2022-07-25T15:03:40.203Z,5.05
2022-07-25T15:05:41.957Z,5.45
2022-07-25T15:07:43.711Z,4.97
2022-07-25T15:09:45.660Z,5.00
2022-07-25T15:11:48.420Z,4.82
2022-07-25T15:13:50.441Z,4.65
2022-07-25T15:15:52.298Z,5.25
2022-07-25T15:17:54.164Z,4.82
2022-07-25T15:19:55.872Z,5.20
2022-07-25T15:21:57.563Z,5.20
2022-07-25T15:24:00.018Z,4.90
2022-07-25T15:26:03.463Z,4.70
2022-07-25T15:28:05.596Z,5.22
2022-07-25T15:30:07.906Z,5.10
2022-07-25T15:32:09.741Z,5.80
2022-07-25T15:34:11.565Z,5.32
2022-07-25T15:36:13.257Z,5.65
2022-07-25T15:38:15.879Z,5.43
2022-07-25T15:40:17.647Z,5.72
2022-07-25T15:42:19.268Z,4.97
2022-07-25T15:44:21.098Z,4.70
2022-07-25T15:46:22.923Z,5.18
2022-07-25T15:48:25.009Z,5.22
2022-07-25T15:50:26.782Z,5.47
2022-07-25T15:52:28.462Z,5.40
2022-07-25T15:54:30.189Z,4.90
2022-07-25T15:56:31.841Z,5.10
2022-07-25T15:58:33.583Z,4.93
2022-07-25T16:00:35.439Z,5.38
2022-07-25T16:02:37.096Z,5.28
2022-07-25T16:04:42.466Z,4.82
2022-07-25T16:06:44.545Z,4.90
2022-07-25T16:08:48.686Z,5.03
2022-07-25T16:10:50.571Z,5.47
2022-07-25T16:12:52.330Z,6.40
2022-07-25T16:14:54.006Z,6.18
2022-07-25T16:16:55.691Z,6.55
2022-07-25T16:18:57.586Z,6.20
2022-07-25T16:20:59.348Z,6.88
2022-07-25T16:23:01.555Z,6.57
2022-07-25T16:25:04.219Z,6.20
2022-07-25T16:27:06.176Z,5.95
2022-07-25T16:29:08.392Z,6.35
2022-07-25T16:31:10.321Z,6.38
2022-07-25T16:33:12.103Z,6.88
2022-07-25T16:35:13.989Z,6.60
2022-07-25T16:37:15.680Z,6.30
2022-07-25T16:39:17.341Z,6.75
2022-07-25T16:41:19.526Z,6.63
2022-07-25T16:43:21.326Z,6.67
2022-07-25T16:45:23.097Z,6.40
2022-07-25T16:47:24.743Z,6.72
2022-07-25T16:49:26.615Z,6.85
2022-07-25T16:51:28.365Z,6.63
2022-07-25T16:53:30.290Z,6.25
2022-07-25T16:55:31.957Z,7.28
2022-07-25T16:57:33.618Z,6.88
2022-07-25T16:59:35.472Z,7.47
2022-07-25T17:01:37.548Z,7.82
2022-07-25T17:03:39.278Z,8.00
2022-07-25T17:05:40.944Z,7.30
2022-07-25T17:07:42.677Z,7.28
2022-07-25T17:09:44.419Z,8.25
2022-07-25T17:11:46.129Z,8.32
2022-07-25T17:13:47.911Z,7.63
2022-07-25T17:15:49.665Z,7.60
2022-07-25T17:17:51.378Z,7.40
2022-07-25T17:19:57.946Z,8.18
2022-07-25T17:22:01.454Z,8.73
2022-07-25T17:24:03.204Z,7.82
2022-07-25T17:26:05.464Z,8.13
2022-07-25T17:28:08.045Z,7.90
2022-07-25T17:30:10.075Z,8.48
2022-07-25T17:32:12.494Z,8.98
2022-07-25T17:34:14.103Z,8.13
2022-07-25T17:36:15.854Z,8.57
2022-07-25T17:38:20.089Z,8.30
2022-07-25T17:40:25.725Z,8.85
2022-07-25T17:42:27.411Z,9.00
2022-07-25T17:44:29.103Z,9.05
2022-07-25T17:46:31.219Z,8.30
2022-07-25T17:48:33.696Z,9.77
2022-07-25T17:50:35.524Z,8.65
2022-07-25T17:52:37.541Z,8.70
2022-07-25T17:54:40.137Z,8.90
2022-07-25T17:56:42.021Z,8.70
2022-07-25T17:58:43.809Z,8.77
2022-07-25T18:00:45.488Z,9.18
2022-07-25T18:02:48.161Z,9.10
2022-07-25T18:04:49.875Z,8.88
2022-07-25T18:06:51.543Z,8.63
2022-07-25T18:08:53.190Z,8.95
2022-07-25T18:10:54.796Z,9.55
2022-07-25T18:12:56.439Z,8.82
2022-07-25T18:14:58.209Z,9.93
2022-07-25T18:17:00.090Z,9.75
2022-07-25T18:19:01.849Z,11.50
2022-07-25T18:21:03.647Z,10.55
2022-07-25T18:23:06.336Z,9.48
2022-07-25T18:25:11.029Z,9.55
2022-07-25T18:27:12.719Z,9.55
2022-07-25T18:29:14.526Z,9.45
2022-07-25T18:31:16.253Z,10.45
2022-07-25T18:33:19.138Z,10.75
2022-07-25T18:35:21.037Z,11.23
2022-07-25T18:37:22.775Z,11.48
2022-07-25T18:39:24.389Z,10.43
2022-07-25T18:41:29.645Z,10.70
2022-07-25T18:43:31.913Z,10.35
2022-07-25T18:45:36.545Z,10.57
2022-07-25T18:47:38.912Z,9.60
2022-07-25T18:49:40.575Z,9.52
2022-07-25T18:51:42.234Z,9.52
2022-07-25T18:53:47.949Z,10.13
2022-07-25T18:55:50.332Z,10.50
2022-07-25T18:57:52.015Z,10.27
2022-07-25T18:59:53.710Z,10.65
2022-07-25T19:01:55.516Z,10.05
2022-07-25T19:03:57.202Z,9.85
2022-07-25T19:06:03.064Z,9.25
2022-07-25T19:08:05.942Z,10.40
2022-07-25T19:10:07.990Z,9.98
2022-07-25T19:12:10.434Z,9.85
2022-07-25T19:14:12.100Z,9.63
2022-07-25T19:16:13.900Z,9.73
2022-07-25T19:18:16.838Z,10.27
2022-07-25T19:20:19.407Z,9.48
2022-07-25T19:22:21.123Z,10.93
2022-07-25T19:24:23.396Z,10.48
2022-07-25T19:26:25.093Z,10.13
2022-07-25T19:28:27.146Z,9.75
2022-07-25T19:30:30.228Z,10.45
2022-07-25T19:32:31.963Z,9.82
2022-07-25T19:34:33.657Z,10.43
2022-07-25T19:36:35.340Z,9.90
2022-07-25T19:38:37.009Z,10.38
2022-07-25T19:40:38.721Z,10.75
2022-07-25T19:42:41.499Z,10.18
2022-07-25T19:44:43.224Z,10.40
2022-07-25T19:46:45.045Z,10.40
2022-07-25T19:48:46.953Z,9.52
2022-07-25T19:50:48.691Z,10.40
2022-07-25T19:52:50.494Z,10.05
2022-07-25T19:54:52.147Z,10.77
2022-07-25T19:56:54.661Z,10.45
2022-07-25T19:59:00.236Z,10.60
2022-07-25T20:01:02.197Z,9.65
2022-07-25T20:03:05.009Z,10.23
2022-07-25T20:05:08.311Z,9.70
2022-07-25T20:07:09.995Z,9.27
2022-07-25T20:09:11.728Z,10.70
2022-07-25T20:11:13.620Z,10.18
2022-07-25T20:13:15.334Z,9.95
2022-07-25T20:15:16.992Z,10.32
2022-07-25T20:17:18.811Z,9.95
2022-07-25T20:19:20.546Z,9.80
2022-07-25T20:21:22.341Z,10.25
2022-07-25T20:23:24.614Z,9.13
2022-07-25T20:25:26.293Z,10.20
2022-07-25T20:27:27.977Z,10.65
2022-07-25T20:29:29.622Z,9.98
2022-07-25T20:31:31.377Z,10.35
2022-07-25T20:33:33.149Z,10.50
2022-07-25T20:35:34.906Z,10.55
2022-07-25T20:37:36.611Z,9.50
2022-07-25T20:39:38.291Z,10.98
2022-07-25T20:41:39.994Z,11.02
2022-07-25T20:43:41.857Z,10.32
2022-07-25T20:45:43.746Z,10.77
2022-07-25T20:47:45.453Z,10.35
2022-07-25T20:49:47.098Z,10.80
2022-07-25T20:51:54.209Z,10.52
2022-07-25T20:53:56.595Z,11.32
2022-07-25T20:56:00.257Z,11.27
2022-07-25T20:58:02.894Z,10.77
2022-07-25T21:00:05.420Z,12.55
2022-07-25T21:02:29.012Z,10.73
2022-07-25T21:04:30.678Z,11.15
2022-07-25T21:06:32.432Z,11.18
2022-07-25T21:08:35.132Z,11.30
2022-07-25T21:10:38.230Z,11.48
2022-07-25T21:12:39.985Z,10.90
2022-07-25T21:14:41.618Z,10.40
2022-07-25T21:16:43.404Z,11.30
2022-07-25T21:18:45.083Z,12.13
2022-07-25T21:20:47.386Z,11.27
2022-07-25T21:22:49.301Z,10.65
2022-07-25T21:24:51.287Z,10.82
2022-07-25T21:26:53.021Z,10.68
2022-07-25T21:28:54.639Z,11.00
2022-07-25T21:30:57.017Z,10.85
2022-07-25T21:32:58.707Z,12.13
2022-07-25T21:35:00.575Z,12.77
2022-07-25T21:37:02.175Z,12.32
2022-07-25T21:39:04.233Z,12.60
2022-07-25T21:41:06.843Z,11.60
2022-07-25T21:43:08.453Z,11.18
2022-07-25T21:45:14.746Z,11.75
2022-07-25T21:47:16.410Z,11.75
2022-07-25T21:49:41.092Z,11.18
2022-07-25T21:51:44.728Z,10.93
2022-07-25T21:53:47.839Z,12.13
2022-07-25T21:55:49.592Z,11.52
2022-07-25T21:57:51.504Z,10.82
2022-07-25T21:59:53.276Z,11.27
2022-07-25T22:01:54.912Z,11.52
2022-07-25T22:03:56.597Z,10.65
2022-07-25T22:05:58.312Z,11.57
2022-07-25T22:07:59.974Z,12.15
2022-07-25T22:10:01.781Z,10.65
2022-07-25T22:12:04.342Z,11.00
2022-07-25T22:14:06.020Z,11.87
2022-07-25T22:16:07.812Z,10.73
2022-07-25T22:18:09.571Z,11.73
2022-07-25T22:20:11.929Z,11.15
2022-07-25T22:22:13.674Z,10.85
2022-07-25T22:24:15.316Z,10.77
2022-07-25T22:26:17.048Z,11.25
2022-07-25T22:28:21.098Z,11.93
2022-07-25T22:30:23.103Z,11.20
2022-07-25T22:32:24.790Z,12.20
2022-07-25T22:34:26.504Z,11.23
2022-07-25T22:36:28.228Z,11.02
2022-07-25T22:38:30.423Z,11.85
2022-07-25T22:40:32.157Z,11.45
2022-07-25T22:42:33.804Z,11.48
2022-07-25T22:44:35.442Z,11.55
2022-07-25T22:46:37.295Z,11.55
2022-07-25T22:48:39.641Z,11.63
2022-07-25T22:50:41.267Z,12.38
2022-07-25T22:52:43.223Z,11.85
2022-07-25T22:54:44.888Z,11.23
2022-07-25T22:56:46.585Z,10.93
2022-07-25T22:58:49.077Z,9.43
2022-07-25T23:00:50.972Z,9.60
2022-07-25T23:02:52.759Z,9.38
2022-07-25T23:04:54.535Z,9.07
2022-07-25T23:06:56.345Z,9.25
2022-07-25T23:08:58.077Z,9.05
2022-07-25T23:10:59.754Z,8.43
2022-07-25T23:13:01.373Z,9.32
2022-07-25T23:15:03.753Z,9.38
2022-07-25T23:17:17.844Z,10.32
2022-07-25T23:19:19.460Z,11.05
2022-07-25T23:21:24.763Z,11.77
2022-07-25T23:23:27.715Z,13.05
2022-07-25T23:25:29.475Z,12.50
2022-07-25T23:27:33.930Z,12.85
2022-07-25T23:29:37.076Z,12.95
2022-07-25T23:31:38.739Z,12.82
2022-07-25T23:33:40.453Z,12.43
2022-07-25T23:35:42.370Z,11.63
2022-07-25T23:37:45.238Z,13.32
2022-07-25T23:39:46.861Z,13.43
2022-07-25T23:41:48.529Z,12.82
2022-07-25T23:43:57.759Z,12.98
2022-07-25T23:46:01.467Z,12.75
2022-07-25T23:48:04.637Z,11.27
2022-07-25T23:50:07.165Z,12.48
2022-07-25T23:52:08.864Z,12.68
2022-07-25T23:54:10.663Z,12.80
2022-07-25T23:56:15.068Z,12.68
2022-07-25T23:58:19.068Z,12.60
